Terminal Aerodrome Forecast
Issued by NWS

Home | Current Version | Previous Version | Text Only | Print | Product List | Glossary Off
Versions: 1 2 3 4 5 6 7 8 9 10 11 12 13 14 15 16 17 18 19 20 21 22 23 24 25 26 27 28 29 30 31 32

000
FTUS43 KLOT 272000 AAA
TAFORD
TAF AMD
KORD 272016Z 2720/2824 20015G25KT P6SM SCT045 BKN200
     FM280000 21013G18KT P6SM VCSH SCT060 BKN080
     FM280200 21012KT P6SM VCSH BKN050
     FM280500 23011KT 6SM -SHRA VCTS SCT020 OVC035CB
     FM280900 28012G20KT P6SM SCT030 BKN060
     FM281500 26016G27KT P6SM SCT250=

USA.gov is the U.S. government's official web portal to all federal, state and local government web resources and services.